createdAt,value
2023-10-15T00:00:28.932Z,6.88
2023-10-15T00:02:57.102Z,6.45
2023-10-15T00:05:28.845Z,6.78
2023-10-15T00:07:56.713Z,7.10
2023-10-15T00:10:28.052Z,7.28
2023-10-15T00:12:56.370Z,7.60
2023-10-15T00:15:25.353Z,7.15
2023-10-15T00:18:00.402Z,6.80
2023-10-15T00:20:32.808Z,6.95
2023-10-15T00:23:06.430Z,6.82
2023-10-15T00:25:39.914Z,6.43
2023-10-15T00:28:12.759Z,7.10
2023-10-15T00:30:41.738Z,6.93
2023-10-15T00:33:19.541Z,6.50
2023-10-15T00:35:47.548Z,6.70
2023-10-15T00:38:18.436Z,6.50
2023-10-15T00:40:47.570Z,7.20
2023-10-15T00:43:19.142Z,6.95
2023-10-15T00:45:47.948Z,6.20
2023-10-15T00:48:35.130Z,7.03
2023-10-15T00:51:09.865Z,7.03
2023-10-15T00:53:43.052Z,7.03
2023-10-15T00:56:12.183Z,6.32
2023-10-15T00:58:44.936Z,7.07
2023-10-15T01:01:18.235Z,7.03
2023-10-15T01:03:55.116Z,7.10
2023-10-15T01:06:36.181Z,6.88
2023-10-15T01:09:10.823Z,6.85
2023-10-15T01:11:39.590Z,7.03
2023-10-15T01:14:11.589Z,6.50
2023-10-15T01:16:40.782Z,7.07
2023-10-15T01:19:19.841Z,6.88
2023-10-15T01:21:51.611Z,7.05
2023-10-15T01:24:21.226Z,6.57
2023-10-15T01:27:01.353Z,7.03
2023-10-15T01:29:29.171Z,7.13
2023-10-15T01:32:00.490Z,6.35
2023-10-15T01:34:28.456Z,7.28
2023-10-15T01:36:58.358Z,7.38
2023-10-15T01:39:41.401Z,6.60
2023-10-15T01:42:08.557Z,6.72
2023-10-15T01:44:48.781Z,6.80
2023-10-15T01:47:15.759Z,6.78
2023-10-15T01:49:43.071Z,6.60
2023-10-15T01:52:28.727Z,6.80
2023-10-15T01:54:55.604Z,6.57
2023-10-15T01:57:23.550Z,6.28
2023-10-15T01:59:56.983Z,6.80
2023-10-15T02:02:25.594Z,6.38
2023-10-15T02:04:58.459Z,6.57
2023-10-15T02:07:25.934Z,6.20
2023-10-15T02:09:52.764Z,6.55
2023-10-15T02:12:19.855Z,6.35
2023-10-15T02:14:49.190Z,6.22
2023-10-15T02:17:20.335Z,6.63
2023-10-15T02:19:49.433Z,6.78
2023-10-15T02:22:17.088Z,6.28
2023-10-15T02:24:49.117Z,6.45
2023-10-15T02:27:25.003Z,5.97
2023-10-15T02:29:52.860Z,7.18
2023-10-15T02:32:23.147Z,6.60
2023-10-15T02:34:53.513Z,7.10
2023-10-15T02:37:25.105Z,6.70
2023-10-15T02:39:52.174Z,6.05
2023-10-15T02:42:20.056Z,6.15
2023-10-15T02:44:53.737Z,6.40
2023-10-15T02:47:21.182Z,6.65
2023-10-15T02:49:53.745Z,6.18
2023-10-15T02:52:21.664Z,6.65
2023-10-15T02:54:48.641Z,6.07
2023-10-15T02:57:16.750Z,6.25
2023-10-15T02:59:54.174Z,6.68
2023-10-15T03:02:21.719Z,6.22
2023-10-15T03:04:50.988Z,6.50
2023-10-15T03:07:21.116Z,6.50
2023-10-15T03:09:53.073Z,6.53
2023-10-15T03:12:20.146Z,6.30
2023-10-15T03:14:47.136Z,6.70
2023-10-15T03:17:25.710Z,6.55
2023-10-15T03:19:56.398Z,6.15
2023-10-15T03:22:26.538Z,6.28
2023-10-15T03:24:54.567Z,6.30
2023-10-15T03:27:27.553Z,5.88
2023-10-15T03:29:57.938Z,6.80
2023-10-15T03:32:38.745Z,6.47
2023-10-15T03:35:18.584Z,6.22
2023-10-15T03:37:59.888Z,6.72
2023-10-15T03:40:48.253Z,6.43
2023-10-15T03:43:21.735Z,7.03
2023-10-15T03:45:55.065Z,6.90
2023-10-15T03:48:29.337Z,6.13
2023-10-15T03:50:59.865Z,7.07
2023-10-15T03:53:29.664Z,6.82
2023-10-15T03:56:02.722Z,6.53
2023-10-15T03:58:30.142Z,6.93
2023-10-15T04:01:09.745Z,6.70
2023-10-15T04:03:37.014Z,6.82
2023-10-15T04:06:06.740Z,7.00
2023-10-15T04:08:33.775Z,6.80
2023-10-15T04:11:01.652Z,7.53
2023-10-15T04:13:28.759Z,6.80
2023-10-15T04:15:56.770Z,6.47
2023-10-15T04:18:24.559Z,7.40
2023-10-15T04:20:53.820Z,6.80
2023-10-15T04:23:32.944Z,6.45
2023-10-15T04:26:02.244Z,7.03
2023-10-15T04:28:30.620Z,6.50
2023-10-15T04:30:58.828Z,6.93
2023-10-15T04:33:29.101Z,6.63
2023-10-15T04:35:58.826Z,6.50
2023-10-15T04:38:31.906Z,6.50
2023-10-15T04:40:58.835Z,7.35
2023-10-15T04:43:26.624Z,6.60
2023-10-15T04:45:57.656Z,6.45
2023-10-15T04:48:28.859Z,6.70
2023-10-15T04:51:03.218Z,5.93
2023-10-15T04:53:32.168Z,6.70
2023-10-15T04:56:02.318Z,6.18
2023-10-15T04:58:29.415Z,6.30
2023-10-15T05:00:59.445Z,6.38
2023-10-15T05:03:26.813Z,6.50
2023-10-15T05:05:56.661Z,6.20
2023-10-15T05:08:25.933Z,6.15
2023-10-15T05:10:53.169Z,6.55
2023-10-15T05:13:21.042Z,6.20
2023-10-15T05:15:48.945Z,6.45
2023-10-15T05:18:16.902Z,6.50
2023-10-15T05:20:51.801Z,6.22
2023-10-15T05:23:20.302Z,6.30
2023-10-15T05:25:50.992Z,6.47
2023-10-15T05:28:18.385Z,6.38
2023-10-15T05:30:45.409Z,6.07
2023-10-15T05:33:12.580Z,6.18
2023-10-15T05:35:44.270Z,6.25
2023-10-15T05:38:11.327Z,6.82
2023-10-15T05:40:39.664Z,6.15
2023-10-15T05:43:07.199Z,6.32
2023-10-15T05:45:34.317Z,6.50
2023-10-15T05:48:02.098Z,5.75
2023-10-15T05:50:29.492Z,6.63
2023-10-15T05:52:56.386Z,5.68
2023-10-15T05:55:23.326Z,5.88
2023-10-15T05:57:50.174Z,6.05
2023-10-15T06:00:20.724Z,6.28
2023-10-15T06:02:53.683Z,6.05
2023-10-15T06:05:20.758Z,6.20
2023-10-15T06:07:47.705Z,5.88
2023-10-15T06:10:14.736Z,5.55
2023-10-15T06:12:42.841Z,5.03
2023-10-15T06:15:10.949Z,5.60
2023-10-15T06:17:38.007Z,6.25
2023-10-15T06:20:14.518Z,6.18
2023-10-15T06:22:50.727Z,5.65
2023-10-15T06:25:19.131Z,5.25
2023-10-15T06:27:46.554Z,5.82
2023-10-15T06:30:16.560Z,5.57
2023-10-15T06:32:49.512Z,4.88
2023-10-15T06:35:21.348Z,5.70
2023-10-15T06:37:49.502Z,5.20
2023-10-15T06:40:22.875Z,5.88
2023-10-15T06:42:52.685Z,5.32
2023-10-15T06:45:20.869Z,5.47
2023-10-15T06:47:49.133Z,5.15
2023-10-15T06:50:16.455Z,5.45
2023-10-15T06:52:44.394Z,5.30
2023-10-15T06:55:16.062Z,5.43
2023-10-15T06:57:43.664Z,5.00
2023-10-15T07:00:13.440Z,5.40
2023-10-15T07:02:40.448Z,5.72
2023-10-15T07:05:08.772Z,4.93
2023-10-15T07:07:35.777Z,4.93
2023-10-15T07:10:06.203Z,5.15
2023-10-15T07:12:33.519Z,4.93
2023-10-15T07:15:00.933Z,4.85
2023-10-15T07:17:27.823Z,4.78
2023-10-15T07:19:54.870Z,4.97
2023-10-15T07:22:22.114Z,4.90
2023-10-15T07:24:49.044Z,5.07
2023-10-15T07:27:16.403Z,4.97
2023-10-15T07:29:43.317Z,5.35
2023-10-15T07:32:10.214Z,4.95
2023-10-15T07:34:37.117Z,4.45
2023-10-15T07:37:04.058Z,4.72
2023-10-15T07:39:32.830Z,4.43
2023-10-15T07:41:59.965Z,4.30
2023-10-15T07:44:27.085Z,4.35
2023-10-15T07:46:54.588Z,4.25
2023-10-15T07:49:25.908Z,4.68
2023-10-15T07:51:52.790Z,4.18
2023-10-15T07:54:19.597Z,4.32
2023-10-15T07:56:46.466Z,4.60
2023-10-15T07:59:13.378Z,4.70
2023-10-15T08:01:40.495Z,4.32
2023-10-15T08:04:10.888Z,3.88
2023-10-15T08:06:38.339Z,4.20
2023-10-15T08:09:05.593Z,3.85
2023-10-15T08:11:32.796Z,4.32
2023-10-15T08:14:00.840Z,4.10
2023-10-15T08:16:27.877Z,3.90
2023-10-15T08:18:54.740Z,3.47
2023-10-15T08:21:22.910Z,3.95
2023-10-15T08:23:49.800Z,3.85
2023-10-15T08:26:16.759Z,3.40
2023-10-15T08:28:43.773Z,3.30
2023-10-15T08:31:10.805Z,3.72
2023-10-15T08:33:37.702Z,3.60
2023-10-15T08:36:04.801Z,3.40
2023-10-15T08:38:31.877Z,3.38
2023-10-15T08:41:00.122Z,3.65
2023-10-15T08:43:35.782Z,3.80
2023-10-15T08:46:10.679Z,4.18
2023-10-15T08:48:41.687Z,3.83
2023-10-15T08:51:15.028Z,3.83
2023-10-15T08:53:42.868Z,4.18
2023-10-15T08:56:10.990Z,4.05
2023-10-15T08:58:41.457Z,4.30
2023-10-15T09:01:08.713Z,4.68
2023-10-15T09:03:39.584Z,4.43
2023-10-15T09:06:06.805Z,4.40
2023-10-15T09:08:36.600Z,4.75
2023-10-15T09:11:05.332Z,4.05
2023-10-15T09:13:37.944Z,4.50
2023-10-15T09:16:07.478Z,4.35
2023-10-15T09:18:37.527Z,4.65
2023-10-15T09:21:05.453Z,4.65
2023-10-15T09:23:36.554Z,4.30
2023-10-15T09:26:07.597Z,4.25
2023-10-15T09:28:38.269Z,4.20
2023-10-15T09:31:12.752Z,4.80
2023-10-15T09:33:40.673Z,4.15
2023-10-15T09:36:08.081Z,3.90
2023-10-15T09:38:36.132Z,3.40
2023-10-15T09:41:03.761Z,3.38
2023-10-15T09:43:37.292Z,3.47
2023-10-15T09:46:07.185Z,3.10
2023-10-15T09:48:38.798Z,3.10
2023-10-15T09:51:06.406Z,3.20
2023-10-15T09:53:35.860Z,3.63
2023-10-15T09:56:10.209Z,2.78
2023-10-15T09:58:38.512Z,2.83
2023-10-15T10:01:20.951Z,2.97
2023-10-15T10:03:50.816Z,3.15
2023-10-15T10:06:33.117Z,2.53
2023-10-15T10:09:38.859Z,3.00
2023-10-15T10:12:19.981Z,3.40
2023-10-15T10:14:52.470Z,3.00
2023-10-15T10:17:22.147Z,2.58
2023-10-15T10:19:53.643Z,2.45
2023-10-15T10:22:30.427Z,2.80
2023-10-15T10:25:00.556Z,3.70
2023-10-15T10:27:27.866Z,3.00
2023-10-15T10:29:55.601Z,2.47
2023-10-15T10:32:22.782Z,2.60
2023-10-15T10:35:25.203Z,2.83
2023-10-15T10:38:19.266Z,2.28
2023-10-15T10:40:51.172Z,2.55
2023-10-15T10:43:19.270Z,2.30
2023-10-15T10:45:54.704Z,2.20
2023-10-15T10:48:29.876Z,2.67
2023-10-15T10:51:20.183Z,2.20
2023-10-15T10:53:59.131Z,2.20
2023-10-15T10:56:45.931Z,3.00
2023-10-15T10:59:18.198Z,5.93
2023-10-15T11:01:47.076Z,7.57
2023-10-15T11:04:17.536Z,5.78
2023-10-15T11:06:49.956Z,3.90
2023-10-15T11:09:17.263Z,2.70
2023-10-15T11:11:48.868Z,3.00
2023-10-15T11:14:16.788Z,2.88
2023-10-15T11:16:44.608Z,2.30
2023-10-15T11:19:25.662Z,2.40
2023-10-15T11:21:54.228Z,2.30
2023-10-15T11:24:26.241Z,2.20
2023-10-15T11:26:55.976Z,2.03
2023-10-15T11:29:24.492Z,2.20
2023-10-15T11:31:55.228Z,2.55
2023-10-15T11:34:25.559Z,2.03
2023-10-15T11:36:57.272Z,1.88
2023-10-15T11:39:39.102Z,1.98
2023-10-15T11:42:08.666Z,1.88
2023-10-15T11:44:38.614Z,2.60
2023-10-15T11:47:26.194Z,2.03
2023-10-15T11:49:55.328Z,1.92
2023-10-15T11:52:23.987Z,2.30
2023-10-15T11:54:52.340Z,1.95
2023-10-15T11:57:28.278Z,2.22
2023-10-15T11:59:58.116Z,2.85
2023-10-15T12:02:32.122Z,1.83
2023-10-15T12:05:02.929Z,1.67
2023-10-15T12:07:30.862Z,1.98
2023-10-15T12:09:59.131Z,2.08
2023-10-15T12:12:27.249Z,2.05
2023-10-15T12:14:54.172Z,2.20
2023-10-15T12:17:22.134Z,2.03
2023-10-15T12:19:54.717Z,2.25
2023-10-15T12:22:30.780Z,1.85
2023-10-15T12:24:57.621Z,2.30
2023-10-15T12:27:26.526Z,1.90
2023-10-15T12:29:56.157Z,2.15
2023-10-15T12:32:31.645Z,1.83
2023-10-15T12:35:12.869Z,2.58
2023-10-15T12:37:40.129Z,2.70
2023-10-15T12:40:12.713Z,2.20
2023-10-15T12:42:41.197Z,2.10
2023-10-15T12:45:11.483Z,2.15
2023-10-15T12:47:41.052Z,2.28
2023-10-15T12:50:16.372Z,2.10
2023-10-15T12:52:48.887Z,1.90
2023-10-15T12:55:16.789Z,2.20
2023-10-15T12:57:43.766Z,2.30
2023-10-15T13:00:20.909Z,1.85
2023-10-15T13:02:52.367Z,2.25
2023-10-15T13:05:21.215Z,2.40
2023-10-15T13:07:48.854Z,1.80
2023-10-15T13:10:18.906Z,1.90
2023-10-15T13:12:49.619Z,2.30
2023-10-15T13:15:19.216Z,2.45
2023-10-15T13:17:46.817Z,2.20
2023-10-15T13:20:15.363Z,2.05
2023-10-15T13:22:43.484Z,1.90
2023-10-15T13:25:11.570Z,2.20
2023-10-15T13:27:41.973Z,3.05
2023-10-15T13:30:16.599Z,2.58
2023-10-15T13:32:44.862Z,2.42
2023-10-15T13:35:14.991Z,2.15
2023-10-15T13:37:45.552Z,2.40
2023-10-15T13:40:13.658Z,2.20
2023-10-15T13:42:43.510Z,2.22
2023-10-15T13:45:12.059Z,2.60
2023-10-15T13:47:39.624Z,2.35
2023-10-15T13:50:08.021Z,2.97
2023-10-15T13:52:36.583Z,2.80
2023-10-15T13:55:05.586Z,1.95
2023-10-15T13:57:32.857Z,2.13
2023-10-15T13:59:59.986Z,2.05
2023-10-15T14:02:26.983Z,2.28
2023-10-15T14:04:54.682Z,2.70
2023-10-15T14:07:22.076Z,2.80
2023-10-15T14:09:51.539Z,2.70
2023-10-15T14:12:18.366Z,2.70
2023-10-15T14:14:45.116Z,2.70
2023-10-15T14:17:12.081Z,2.45
2023-10-15T14:19:39.766Z,2.67
2023-10-15T14:22:06.588Z,2.53
2023-10-15T14:24:34.427Z,2.45
2023-10-15T14:27:01.281Z,2.33
2023-10-15T14:29:28.041Z,2.65
2023-10-15T14:31:54.978Z,3.60
2023-10-15T14:34:21.974Z,2.80
2023-10-15T14:36:49.819Z,2.30
2023-10-15T14:39:23.771Z,2.33
2023-10-15T14:41:50.669Z,2.25
2023-10-15T14:44:17.616Z,2.30
2023-10-15T14:46:44.594Z,2.83
2023-10-15T14:49:11.392Z,2.15
2023-10-15T14:51:38.190Z,3.45
2023-10-15T14:54:06.258Z,2.15
2023-10-15T14:56:33.855Z,2.45
2023-10-15T14:59:01.616Z,3.67
2023-10-15T15:01:28.564Z,2.70
2023-10-15T15:03:56.788Z,1.90
2023-10-15T15:06:23.814Z,2.00
2023-10-15T15:08:50.641Z,2.00
2023-10-15T15:11:17.656Z,2.80
2023-10-15T15:13:44.512Z,2.38
2023-10-15T15:16:11.373Z,2.47
2023-10-15T15:18:38.202Z,2.10
2023-10-15T15:21:09.310Z,2.25
2023-10-15T15:23:36.258Z,1.88
2023-10-15T15:26:06.314Z,2.28
2023-10-15T15:28:34.406Z,2.40
2023-10-15T15:31:01.827Z,2.63
2023-10-15T15:33:29.243Z,3.38
2023-10-15T15:35:56.898Z,3.05
2023-10-15T15:38:23.967Z,3.13
2023-10-15T15:40:53.857Z,2.20
2023-10-15T15:43:25.074Z,5.03
2023-10-15T15:45:53.088Z,2.40
2023-10-15T15:48:21.066Z,2.60
2023-10-15T15:50:48.150Z,2.30
2023-10-15T15:53:15.084Z,2.20
2023-10-15T15:55:42.513Z,2.33
2023-10-15T15:58:12.233Z,2.20
2023-10-15T16:00:40.370Z,3.08
2023-10-15T16:03:07.457Z,2.60
2023-10-15T16:05:35.550Z,3.05
2023-10-15T16:08:03.831Z,2.45
2023-10-15T16:10:31.275Z,2.10
2023-10-15T16:12:59.608Z,2.65
2023-10-15T16:15:27.539Z,2.97
2023-10-15T16:17:54.947Z,2.75
2023-10-15T16:20:22.503Z,2.20
2023-10-15T16:22:50.787Z,2.05
2023-10-15T16:25:23.129Z,2.10
2023-10-15T16:27:49.994Z,2.70
2023-10-15T16:30:17.023Z,2.38
2023-10-15T16:32:44.426Z,3.50
2023-10-15T16:35:14.498Z,2.70
2023-10-15T16:37:41.378Z,2.78
2023-10-15T16:40:14.619Z,2.60
2023-10-15T16:42:42.739Z,3.00
2023-10-15T16:45:09.971Z,3.53
2023-10-15T16:47:39.158Z,3.40
2023-10-15T16:50:07.160Z,3.40
2023-10-15T16:52:34.039Z,3.10
2023-10-15T16:55:00.927Z,3.40
2023-10-15T16:57:27.763Z,2.63
2023-10-15T16:59:58.057Z,2.90
2023-10-15T17:02:26.076Z,3.72
2023-10-15T17:04:57.854Z,3.30
2023-10-15T17:07:31.341Z,3.20
2023-10-15T17:09:58.680Z,3.38
2023-10-15T17:12:25.675Z,3.20
2023-10-15T17:14:52.484Z,3.30
2023-10-15T17:17:19.312Z,3.28
2023-10-15T17:19:48.645Z,2.80
2023-10-15T17:22:15.559Z,3.20
2023-10-15T17:24:42.861Z,3.10
2023-10-15T17:27:10.327Z,2.80
2023-10-15T17:29:45.053Z,3.10
2023-10-15T17:32:17.328Z,3.10
2023-10-15T17:34:44.423Z,3.22
2023-10-15T17:37:19.462Z,3.30
2023-10-15T17:39:47.106Z,3.00
2023-10-15T17:42:14.409Z,3.83
2023-10-15T17:44:43.222Z,3.25
2023-10-15T17:47:10.576Z,3.53
2023-10-15T17:49:37.437Z,3.13
2023-10-15T17:52:04.416Z,2.80
2023-10-15T17:54:31.571Z,3.65
2023-10-15T17:57:01.215Z,2.90
2023-10-15T17:59:28.184Z,3.53
2023-10-15T18:01:55.551Z,3.22
2023-10-15T18:04:22.662Z,3.55
2023-10-15T18:06:51.364Z,2.90
2023-10-15T18:09:19.196Z,3.75
2023-10-15T18:11:46.491Z,3.97
2023-10-15T18:14:13.479Z,3.80
2023-10-15T18:16:40.898Z,3.97
2023-10-15T18:19:08.881Z,3.63
2023-10-15T18:21:35.870Z,3.65
2023-10-15T18:24:02.776Z,2.90
2023-10-15T18:26:29.655Z,2.83
2023-10-15T18:28:56.656Z,2.50
2023-10-15T18:31:23.614Z,2.92
2023-10-15T18:33:50.501Z,3.25
2023-10-15T18:36:17.567Z,3.10
2023-10-15T18:38:44.585Z,3.40
2023-10-15T18:41:12.230Z,3.50
2023-10-15T18:43:39.944Z,4.22
2023-10-15T18:46:08.000Z,2.92
2023-10-15T18:48:36.477Z,3.60
2023-10-15T18:51:21.325Z,3.53
2023-10-15T18:53:51.275Z,3.92
2023-10-15T18:56:18.128Z,3.42
2023-10-15T18:58:45.006Z,4.00
2023-10-15T19:01:12.262Z,3.72
2023-10-15T19:03:39.584Z,3.40
2023-10-15T19:06:07.897Z,4.00
2023-10-15T19:08:34.978Z,4.22
2023-10-15T19:11:02.062Z,4.07
2023-10-15T19:13:29.448Z,4.45
2023-10-15T19:16:00.279Z,5.15
2023-10-15T19:18:29.637Z,4.95
2023-10-15T19:20:56.592Z,5.35
2023-10-15T19:23:23.614Z,5.45
2023-10-15T19:25:50.523Z,5.47
2023-10-15T19:28:18.345Z,5.65
2023-10-15T19:30:45.240Z,5.70
2023-10-15T19:33:12.135Z,5.80
2023-10-15T19:35:39.855Z,5.30
2023-10-15T19:38:06.933Z,5.28
2023-10-15T19:40:35.187Z,3.90
2023-10-15T19:43:02.392Z,2.60
2023-10-15T19:45:29.795Z,3.30
2023-10-15T19:47:58.717Z,3.67
2023-10-15T19:50:27.175Z,3.05
2023-10-15T19:52:54.016Z,3.50
2023-10-15T19:55:20.962Z,3.92
2023-10-15T19:57:48.161Z,4.10
2023-10-15T20:00:21.165Z,4.00
2023-10-15T20:02:48.538Z,3.23
2023-10-15T20:05:16.065Z,3.70
2023-10-15T20:07:43.197Z,4.25
2023-10-15T20:10:11.311Z,4.15
2023-10-15T20:12:48.014Z,4.00
2023-10-15T20:15:20.697Z,4.40
2023-10-15T20:17:48.651Z,4.20
2023-10-15T20:20:18.771Z,4.22
2023-10-15T20:22:47.326Z,3.80
2023-10-15T20:25:16.320Z,3.97
2023-10-15T20:27:44.081Z,4.25
2023-10-15T20:30:17.118Z,4.10
2023-10-15T20:32:55.324Z,4.32
2023-10-15T20:35:24.538Z,3.60
2023-10-15T20:37:56.028Z,4.80
2023-10-15T20:40:26.782Z,5.90
2023-10-15T20:42:54.933Z,5.40
2023-10-15T20:45:25.269Z,5.20
2023-10-15T20:47:52.807Z,5.88
2023-10-15T20:50:20.824Z,6.57
2023-10-15T20:52:48.905Z,5.95
2023-10-15T20:55:16.525Z,6.13
2023-10-15T20:57:44.359Z,5.35
2023-10-15T21:00:13.917Z,3.70
2023-10-15T21:02:42.992Z,3.63
2023-10-15T21:05:11.825Z,3.25
2023-10-15T21:07:40.490Z,3.92
2023-10-15T21:10:10.959Z,4.70
2023-10-15T21:12:38.476Z,7.13
2023-10-15T21:15:07.496Z,6.88
2023-10-15T21:17:36.462Z,8.43
2023-10-15T21:20:11.427Z,9.68
2023-10-15T21:22:40.677Z,8.07
2023-10-15T21:25:13.481Z,8.63
2023-10-15T21:27:41.350Z,8.90
2023-10-15T21:30:10.067Z,9.27
2023-10-15T21:32:37.123Z,8.35
2023-10-15T21:35:06.665Z,9.80
2023-10-15T21:37:33.556Z,10.93
2023-10-15T21:40:00.540Z,11.13
2023-10-15T21:42:27.462Z,11.45
2023-10-15T21:44:54.317Z,10.60
2023-10-15T21:47:21.158Z,10.63
2023-10-15T21:49:48.005Z,9.90
2023-10-15T21:52:14.874Z,9.52
2023-10-15T21:54:41.851Z,10.00
2023-10-15T21:57:09.449Z,8.65
2023-10-15T21:59:37.081Z,7.30
2023-10-15T22:02:07.045Z,7.78
2023-10-15T22:04:34.469Z,8.13
2023-10-15T22:07:02.111Z,7.95
2023-10-15T22:09:30.095Z,8.15
2023-10-15T22:11:58.097Z,8.23
2023-10-15T22:14:27.143Z,7.95
2023-10-15T22:16:57.826Z,7.05
2023-10-15T22:19:28.246Z,7.80
2023-10-15T22:21:57.704Z,6.55
2023-10-15T22:24:25.032Z,7.18
2023-10-15T22:26:53.563Z,5.97
2023-10-15T22:29:40.174Z,6.90
2023-10-15T22:32:08.430Z,7.15
2023-10-15T22:34:37.531Z,6.55
2023-10-15T22:37:07.170Z,6.38
2023-10-15T22:39:37.966Z,6.93
2023-10-15T22:42:12.095Z,6.07
2023-10-15T22:44:46.000Z,6.40
2023-10-15T22:47:14.398Z,5.63
2023-10-15T22:49:41.888Z,3.90
2023-10-15T22:52:09.139Z,5.30
2023-10-15T22:54:36.136Z,4.75
2023-10-15T22:57:04.546Z,3.70
2023-10-15T22:59:32.057Z,3.53
2023-10-15T23:01:58.999Z,3.10
2023-10-15T23:04:27.639Z,2.95
2023-10-15T23:06:55.018Z,3.20
2023-10-15T23:09:22.933Z,2.95
2023-10-15T23:11:50.086Z,3.28
2023-10-15T23:14:17.332Z,2.75
2023-10-15T23:16:46.208Z,3.00
2023-10-15T23:19:16.605Z,2.97
2023-10-15T23:21:56.383Z,2.53
2023-10-15T23:24:26.760Z,2.83
2023-10-15T23:26:54.118Z,2.55
2023-10-15T23:29:25.631Z,2.45
2023-10-15T23:31:52.689Z,2.70
2023-10-15T23:34:19.540Z,2.70
2023-10-15T23:36:46.483Z,2.60
2023-10-15T23:39:17.578Z,2.45
2023-10-15T23:41:44.893Z,2.70
2023-10-15T23:44:11.904Z,2.63
2023-10-15T23:46:41.421Z,2.70
2023-10-15T23:49:12.631Z,2.20
2023-10-15T23:51:41.881Z,2.67
2023-10-15T23:54:15.909Z,2.08
2023-10-15T23:56:45.843Z,2.13
2023-10-15T23:59:17.200Z,2.28
